Mount Wilson, Pennsylvania
Current Conditions -  °F | °C
As of 8:58 AM on Sunday 21 Dec 2014 (Local Time) from KMUI Reporting Station
Overcast Overcast  
Wind Chill: 26°   Ceiling: 2500
Heat Index: 30°   Visibility: 10mi
Dew Point: 22°   Wind: 5mph
Humidity: 71%   Direction: NA
Pressure: 30.33"   Gusts: NA
Location:  40.2957°N, 76.4189°W
Report Text: KMUI 211358Z AUTO VRB04KT 10SM OVC025 M01/M05 A3033 RMK AO2 SLP279 T10091055
Loading
Personal Weather Stations






























Interactive Weather Map New forecast layout! Learn more

10-Day Weather Forecast

Advertisements
Track Severe Weather on mobile